Time;durP1;ratioP1;P1;durP2;ratioP2;P2;SDS_P1;SDS_P2;PMS_P1;PMS_P2;Temp;Humidity;BMP_temperature;BMP_pressure;BME280_temperature;BME280_humidity;BME280_pressure;Samples;Min_cycle;Max_cycle;Signal;HPM_P1;HPM_P2
2021/01/13 00:02:17;;;;;;;;;;;1.20;99.90;;;;;;4889519;29;20372;-81
2021/01/13 00:04:44;;;;;;;;;;;1.20;99.90;;;;;;4893303;29;19930;-83
2021/01/13 00:07:13;;;;;;;;;;;1.20;99.90;;;;;;4892452;29;20407;-81
2021/01/13 00:09:45;;;;;;;;;;;1.20;99.90;;;;;;4888155;29;19933;-81
2021/01/13 00:12:12;;;;;;;;;;;1.30;99.90;;;;;;4887266;29;19934;-80
2021/01/13 00:14:44;;;;;;;;;;;1.40;99.90;;;;;;4887663;29;19923;-80
2021/01/13 00:17:11;;;;;;;;;;;1.40;99.90;;;;;;4916807;29;19934;-80
2021/01/13 00:19:38;;;;;;;;;;;1.40;99.90;;;;;;4887588;29;19923;-80
2021/01/13 00:22:08;;;;;;;;;;;1.50;99.90;;;;;;4902971;29;19926;-81
2021/01/13 00:24:39;;;;;;;;;;;1.40;99.90;;;;;;4888967;29;19923;-80
2021/01/13 00:27:06;;;;;;;;;;;1.50;99.90;;;;;;4886203;29;19923;-81
2021/01/13 00:29:34;;;;;;;;;;;1.40;99.90;;;;;;4902244;29;19931;-80
2021/01/13 00:32:01;;;;;;;;;;;1.40;99.90;;;;;;4887857;29;20361;-79
2021/01/13 00:34:31;;;;;;;;;;;1.40;99.90;;;;;;4888139;29;19923;-80
2021/01/13 00:36:58;;;;;;;;;;;1.40;99.90;;;;;;4887846;29;19923;-80
2021/01/13 00:39:25;;;;;;;;;;;1.40;99.90;;;;;;4888332;29;19942;-81
2021/01/13 00:41:56;;;;;;;;;;;1.50;99.90;;;;;;4887333;29;19934;-80
2021/01/13 00:44:26;;;;;;;;;;;1.50;99.90;;;;;;4903055;29;20261;-81
2021/01/13 00:46:54;;;;;;;;;;;1.50;99.90;;;;;;4886335;29;19926;-81
2021/01/13 00:49:21;;;;;;;;;;;1.50;99.90;;;;;;4902468;29;19922;-80
2021/01/13 00:51:48;;;;;;;;;;;1.50;99.90;;;;;;4903509;29;19934;-81
2021/01/13 00:54:17;;;;;;;;;;;1.50;99.90;;;;;;4902912;29;19934;-81
2021/01/13 00:56:45;;;;;;;;;;;1.40;99.90;;;;;;4919239;29;19927;-80
2021/01/13 00:59:12;;;;;;;;;;;1.30;99.90;;;;;;4903609;29;19946;-81
2021/01/13 01:01:42;;;;;;;;;;;1.30;99.90;;;;;;4890213;29;19930;-81
2021/01/13 01:04:15;;;;;;;;;;;1.20;99.90;;;;;;4888150;29;19931;-80
2021/01/13 01:06:42;;;;;;;;;;;1.20;99.90;;;;;;4903438;29;19923;-80
2021/01/13 01:09:09;;;;;;;;;;;1.10;99.90;;;;;;4902847;29;19930;-81
2021/01/13 01:11:39;;;;;;;;;;;1.20;99.90;;;;;;4904612;29;19950;-81
2021/01/13 01:14:07;;;;;;;;;;;1.10;99.90;;;;;;4888923;29;19934;-80
2021/01/13 01:16:35;;;;;;;;;;;1.00;99.90;;;;;;4903118;29;20380;-80
2021/01/13 01:19:03;;;;;;;;;;;0.90;99.90;;;;;;4902598;29;19927;-81
2021/01/13 01:21:30;;;;;;;;;;;0.90;99.90;;;;;;4886838;29;19923;-81
2021/01/13 01:23:57;;;;;;;;;;;0.90;99.90;;;;;;4905036;29;19927;-78
2021/01/13 01:26:25;;;;;;;;;;;0.90;99.90;;;;;;4902218;29;19923;-79
2021/01/13 01:28:52;;;;;;;;;;;0.90;99.90;;;;;;4891245;29;19922;-79
2021/01/13 01:31:19;;;;;;;;;;;1.00;99.90;;;;;;4906186;29;19930;-79
2021/01/13 01:33:46;;;;;;;;;;;0.80;99.90;;;;;;4898936;29;19934;-80
2021/01/13 01:36:17;;;;;;;;;;;0.80;99.90;;;;;;4890769;29;19930;-79
2021/01/13 01:38:44;;;;;;;;;;;0.90;99.90;;;;;;4891589;29;19938;-79
2021/01/13 01:41:15;;;;;;;;;;;1.00;99.90;;;;;;4909935;29;19923;-79
2021/01/13 01:43:44;;;;;;;;;;;1.00;99.90;;;;;;4895085;29;19923;-79
2021/01/13 01:46:14;;;;;;;;;;;1.00;99.90;;;;;;4898006;29;19930;-79
2021/01/13 01:48:49;;;;;;;;;;;0.90;99.90;;;;;;4899323;29;19927;-77
2021/01/13 01:51:20;;;;;;;;;;;0.90;99.90;;;;;;4901073;29;19934;-78
2021/01/13 01:53:56;;;;;;;;;;;1.00;99.90;;;;;;4932772;29;19923;-79
2021/01/13 01:56:28;;;;;;;;;;;1.10;99.90;;;;;;4913852;29;19923;-79
2021/01/13 01:59:00;;;;;;;;;;;1.10;99.90;;;;;;4913112;29;19930;-79
2021/01/13 02:01:32;;;;;;;;;;;1.20;99.90;;;;;;4926978;29;19922;-80
2021/01/13 02:04:13;;;;;;;;;;;1.30;99.90;;;;;;4910772;29;19923;-79
2021/01/13 02:07:03;;;;;;;;;;;1.30;99.90;;;;;;4894232;29;19923;-79
2021/01/13 02:09:30;;;;;;;;;;;1.40;99.90;;;;;;4925466;29;19923;-79
2021/01/13 02:12:00;;;;;;;;;;;1.30;99.90;;;;;;4893630;29;19934;-80
2021/01/13 02:14:31;;;;;;;;;;;1.20;99.90;;;;;;4896239;29;20372;-79
2021/01/13 02:16:58;;;;;;;;;;;1.20;99.90;;;;;;4904083;29;19923;-79
2021/01/13 02:19:50;;;;;;;;;;;1.20;99.90;;;;;;4903354;29;19923;-79
2021/01/13 02:22:21;;;;;;;;;;;1.20;99.90;;;;;;4902698;29;19944;-78
2021/01/13 02:25:08;;;;;;;;;;;1.30;99.90;;;;;;4904869;29;19923;-78
2021/01/13 02:27:54;;;;;;;;;;;1.20;99.90;;;;;;4913692;29;19993;-78
2021/01/13 02:30:25;;;;;;;;;;;1.20;99.90;;;;;;4906710;29;20280;-78
2021/01/13 02:32:57;;;;;;;;;;;1.20;99.90;;;;;;4908485;29;20265;-78
2021/01/13 02:35:25;;;;;;;;;;;1.30;99.90;;;;;;4906847;29;19927;-78
2021/01/13 02:38:02;;;;;;;;;;;1.30;99.90;;;;;;4907399;29;19934;-79
2021/01/13 02:40:32;;;;;;;;;;;1.40;99.90;;;;;;4906282;29;19923;-78
2021/01/13 02:43:05;;;;;;;;;;;1.50;99.90;;;;;;4909708;29;19930;-77
2021/01/13 02:45:35;;;;;;;;;;;1.40;99.90;;;;;;4909556;29;19923;-78
2021/01/13 02:48:14;;;;;;;;;;;1.60;99.90;;;;;;4896472;29;19938;-79
2021/01/13 02:50:45;;;;;;;;;;;1.70;99.90;;;;;;4925175;29;19986;-80
2021/01/13 02:53:30;;;;;;;;;;;1.70;99.90;;;;;;4913034;29;19923;-79
2021/01/13 02:56:08;;;;;;;;;;;1.80;99.90;;;;;;4901274;29;19934;-78
2021/01/13 02:58:37;;;;;;;;;;;1.80;99.90;;;;;;4916025;29;20276;-78
2021/01/13 03:01:05;;;;;;;;;;;1.80;99.90;;;;;;4930640;29;19930;-80
2021/01/13 03:03:33;;;;;;;;;;;1.90;99.90;;;;;;4899116;29;19989;-79
2021/01/13 03:06:03;;;;;;;;;;;1.80;99.90;;;;;;4895162;29;20261;-78
2021/01/13 03:08:40;;;;;;;;;;;1.70;99.90;;;;;;4910106;29;19923;-79
2021/01/13 03:11:08;;;;;;;;;;;1.70;99.90;;;;;;4893046;29;19923;-80
2021/01/13 03:13:42;;;;;;;;;;;1.70;99.90;;;;;;4904588;29;19927;-79
2021/01/13 03:16:09;;;;;;;;;;;1.60;99.90;;;;;;4889810;29;19923;-78
2021/01/13 03:18:42;;;;;;;;;;;1.50;99.90;;;;;;4906315;29;19931;-79
2021/01/13 03:21:15;;;;;;;;;;;1.60;99.90;;;;;;4890307;29;19934;-78
2021/01/13 03:23:46;;;;;;;;;;;1.40;99.90;;;;;;4922418;29;19923;-79
2021/01/13 03:26:15;;;;;;;;;;;1.50;99.90;;;;;;4909774;29;19923;-78
2021/01/13 03:28:45;;;;;;;;;;;1.70;99.90;;;;;;4894441;29;19923;-78
2021/01/13 03:31:16;;;;;;;;;;;1.80;99.90;;;;;;4904822;29;19923;-78
2021/01/13 03:34:01;;;;;;;;;;;1.80;99.90;;;;;;4904108;29;20364;-78
2021/01/13 03:36:37;;;;;;;;;;;1.80;99.90;;;;;;4919601;29;19922;-78
2021/01/13 03:39:05;;;;;;;;;;;2.10;99.90;;;;;;4905765;29;19938;-79
2021/01/13 03:41:46;;;;;;;;;;;2.10;99.90;;;;;;4905410;29;19934;-79
2021/01/13 03:44:15;;;;;;;;;;;2.10;99.90;;;;;;4894379;29;19923;-78
2021/01/13 03:46:49;;;;;;;;;;;2.00;99.90;;;;;;4921519;29;19922;-79
2021/01/13 03:49:17;;;;;;;;;;;1.90;99.90;;;;;;4928250;29;20277;-79
2021/01/13 03:52:02;;;;;;;;;;;1.90;99.90;;;;;;4904900;29;19934;-78
2021/01/13 03:54:34;;;;;;;;;;;1.80;99.90;;;;;;4895964;29;19923;-78
2021/01/13 03:57:01;;;;;;;;;;;1.80;99.90;;;;;;4894454;29;19938;-78
2021/01/13 03:59:45;;;;;;;;;;;1.60;99.90;;;;;;4893635;29;20034;-79
2021/01/13 04:02:17;;;;;;;;;;;1.70;99.90;;;;;;4893256;29;19923;-78
2021/01/13 04:05:02;;;;;;;;;;;1.80;99.90;;;;;;4890846;29;19923;-78
2021/01/13 04:07:36;;;;;;;;;;;1.90;99.90;;;;;;4904176;29;19923;-78
2021/01/13 04:10:06;;;;;;;;;;;1.90;99.90;;;;;;4903551;29;20261;-79
2021/01/13 04:12:38;;;;;;;;;;;1.90;99.90;;;;;;4904015;29;19934;-79
2021/01/13 04:15:10;;;;;;;;;;;2.00;99.90;;;;;;4888680;29;19923;-79
2021/01/13 04:17:41;;;;;;;;;;;2.10;99.90;;;;;;4909812;29;20277;-78
2021/01/13 04:20:12;;;;;;;;;;;2.10;99.90;;;;;;4894147;29;19931;-79
2021/01/13 04:22:40;;;;;;;;;;;2.00;99.90;;;;;;4893760;29;19934;-78
2021/01/13 04:25:08;;;;;;;;;;;2.10;99.90;;;;;;4891260;29;19939;-79
2021/01/13 04:27:35;;;;;;;;;;;2.00;99.90;;;;;;4892047;29;19938;-79
2021/01/13 04:30:03;;;;;;;;;;;2.10;99.90;;;;;;4907663;29;19933;-79
2021/01/13 04:32:35;;;;;;;;;;;2.10;99.90;;;;;;4905642;29;19945;-79
2021/01/13 04:35:05;;;;;;;;;;;2.20;99.90;;;;;;4905527;29;19934;-79
2021/01/13 04:37:34;;;;;;;;;;;2.20;99.90;;;;;;4921395;29;19923;-79
2021/01/13 04:40:11;;;;;;;;;;;2.20;99.90;;;;;;4923906;29;19934;-79
2021/01/13 04:42:47;;;;;;;;;;;2.30;99.90;;;;;;4907017;29;19958;-79
2021/01/13 04:45:22;;;;;;;;;;;2.30;99.90;;;;;;4909987;29;19934;-79
2021/01/13 04:47:51;;;;;;;;;;;2.30;99.90;;;;;;4903089;29;19923;-79
2021/01/13 04:50:19;;;;;;;;;;;2.30;99.90;;;;;;4908310;29;20000;-79
2021/01/13 04:52:47;;;;;;;;;;;2.20;99.90;;;;;;4890127;29;19922;-78
2021/01/13 04:55:22;;;;;;;;;;;2.30;99.90;;;;;;4891786;29;19934;-79
2021/01/13 04:58:09;;;;;;;;;;;2.20;99.90;;;;;;4907330;29;19923;-79
2021/01/13 05:00:56;;;;;;;;;;;2.30;99.90;;;;;;4894002;29;19907;-78
2021/01/13 05:03:41;;;;;;;;;;;2.30;99.90;;;;;;4932043;29;20269;-78
2021/01/13 05:06:35;;;;;;;;;;;2.20;99.90;;;;;;4896007;29;19923;-78
2021/01/13 05:09:04;;;;;;;;;;;2.20;99.90;;;;;;4872491;29;19923;-79
2021/01/13 05:11:39;;;;;;;;;;;2.20;99.90;;;;;;4895710;29;19923;-78
2021/01/13 05:14:06;;;;;;;;;;;2.20;99.90;;;;;;4896405;29;19923;-79
2021/01/13 05:16:49;;;;;;;;;;;2.30;99.90;;;;;;4913403;29;19930;-78
2021/01/13 05:19:17;;;;;;;;;;;2.30;99.90;;;;;;4914617;29;19922;-78
2021/01/13 05:21:50;;;;;;;;;;;2.30;99.90;;;;;;4911542;29;19950;-78
2021/01/13 05:24:19;;;;;;;;;;;2.20;99.90;;;;;;4914039;29;19923;-79
2021/01/13 05:26:57;;;;;;;;;;;2.20;99.90;;;;;;4897866;29;19934;-79
2021/01/13 05:29:36;;;;;;;;;;;2.20;99.90;;;;;;4897501;29;19923;-79
2021/01/13 05:32:06;;;;;;;;;;;2.10;99.90;;;;;;4913671;29;19934;-80
2021/01/13 05:34:34;;;;;;;;;;;2.00;99.90;;;;;;4918800;29;19930;-77
2021/01/13 05:37:16;;;;;;;;;;;2.00;99.90;;;;;;4916443;29;20334;-78
2021/01/13 05:39:43;;;;;;;;;;;2.00;99.90;;;;;;4908234;29;19934;-79
2021/01/13 05:42:17;;;;;;;;;;;2.20;99.90;;;;;;4911694;29;19923;-78
2021/01/13 05:44:45;;;;;;;;;;;2.20;99.90;;;;;;4913035;29;19922;-79
2021/01/13 05:47:40;;;;;;;;;;;2.20;99.90;;;;;;4909392;29;20256;-79
2021/01/13 05:50:10;;;;;;;;;;;2.00;99.90;;;;;;4919974;29;19934;-78
2021/01/13 05:52:41;;;;;;;;;;;1.90;99.90;;;;;;4924762;29;19942;-79
2021/01/13 05:55:18;;;;;;;;;;;1.90;99.90;;;;;;4913933;29;19923;-79
2021/01/13 05:57:52;;;;;;;;;;;1.90;99.90;;;;;;4904410;29;20250;-79
2021/01/13 06:00:22;;;;;;;;;;;2.00;99.90;;;;;;4924019;29;20231;-79
2021/01/13 06:02:56;;;;;;;;;;;2.00;99.90;;;;;;4886777;29;19930;-78
2021/01/13 06:05:24;;;;;;;;;;;2.20;99.90;;;;;;4895458;29;19930;-79
2021/01/13 06:07:53;;;;;;;;;;;2.10;99.90;;;;;;4908511;29;19922;-79
2021/01/13 06:10:21;;;;;;;;;;;2.10;99.90;;;;;;4924489;29;19923;-78
2021/01/13 06:12:49;;;;;;;;;;;2.30;99.90;;;;;;4900957;29;19923;-79
2021/01/13 06:15:23;;;;;;;;;;;2.30;99.90;;;;;;4914936;29;19923;-78
2021/01/13 06:17:55;;;;;;;;;;;2.20;99.90;;;;;;4886151;29;19923;-80
2021/01/13 06:20:23;;;;;;;;;;;2.20;99.90;;;;;;4933688;29;19933;-79
2021/01/13 06:22:54;;;;;;;;;;;2.20;99.90;;;;;;4900058;29;19923;-78
2021/01/13 06:25:25;;;;;;;;;;;2.20;99.90;;;;;;4913977;29;20277;-79
2021/01/13 06:28:13;;;;;;;;;;;2.10;99.90;;;;;;4906677;29;19930;-78
2021/01/13 06:30:43;;;;;;;;;;;2.00;99.90;;;;;;4896517;29;19923;-79
2021/01/13 06:33:19;;;;;;;;;;;2.00;99.90;;;;;;4912740;29;20400;-79
2021/01/13 06:36:14;;;;;;;;;;;2.00;99.90;;;;;;4920176;29;19927;-79
2021/01/13 06:38:48;;;;;;;;;;;1.90;99.90;;;;;;4917084;29;19996;-78
2021/01/13 06:41:15;;;;;;;;;;;2.00;99.90;;;;;;4916789;29;19933;-79
2021/01/13 06:43:56;;;;;;;;;;;2.00;99.90;;;;;;4902908;29;19923;-79
2021/01/13 06:46:26;;;;;;;;;;;1.90;99.90;;;;;;4895602;29;19923;-79
2021/01/13 06:48:56;;;;;;;;;;;1.80;99.90;;;;;;4908442;29;20385;-78
2021/01/13 06:51:24;;;;;;;;;;;1.80;99.90;;;;;;4909905;29;19923;-78
2021/01/13 06:53:52;;;;;;;;;;;1.80;99.90;;;;;;4911285;29;19923;-78
2021/01/13 06:56:28;;;;;;;;;;;1.80;99.90;;;;;;4890757;29;19936;-78
2021/01/13 06:58:57;;;;;;;;;;;1.80;99.90;;;;;;4897892;29;19934;-79
2021/01/13 07:01:28;;;;;;;;;;;1.80;99.90;;;;;;4916806;29;19927;-78
2021/01/13 07:04:04;;;;;;;;;;;1.80;99.90;;;;;;4900643;29;19933;-79
2021/01/13 07:06:32;;;;;;;;;;;1.80;99.90;;;;;;4928006;29;19934;-79
2021/01/13 07:09:01;;;;;;;;;;;1.80;99.90;;;;;;4895929;29;19923;-79
2021/01/13 07:11:30;;;;;;;;;;;1.80;99.90;;;;;;4895403;29;19922;-78
2021/01/13 07:14:02;;;;;;;;;;;1.80;99.90;;;;;;4903072;29;20376;-79
2021/01/13 07:16:30;;;;;;;;;;;1.90;99.90;;;;;;4919653;29;19924;-78
2021/01/13 07:18:58;;;;;;;;;;;1.90;99.90;;;;;;4889076;29;19923;-78
2021/01/13 07:21:36;;;;;;;;;;;2.10;99.90;;;;;;4899762;29;20353;-78
2021/01/13 07:24:09;;;;;;;;;;;2.10;99.90;;;;;;4919413;29;19923;-80
2021/01/13 07:26:38;;;;;;;;;;;2.10;99.90;;;;;;4904446;29;20258;-79
2021/01/13 07:29:05;;;;;;;;;;;2.20;99.90;;;;;;4906591;29;20238;-78
2021/01/13 07:31:33;;;;;;;;;;;2.10;99.90;;;;;;4893043;29;19923;-79
2021/01/13 07:34:03;;;;;;;;;;;2.20;99.90;;;;;;4909760;29;20389;-78
2021/01/13 07:36:32;;;;;;;;;;;2.20;99.90;;;;;;4930100;29;19923;-78
2021/01/13 07:39:04;;;;;;;;;;;2.20;99.90;;;;;;4911959;29;19923;-78
2021/01/13 07:41:54;;;;;;;;;;;2.20;99.90;;;;;;4906832;29;19934;-78
2021/01/13 07:44:42;;;;;;;;;;;2.30;99.90;;;;;;4891669;29;19934;-79
2021/01/13 07:47:25;;;;;;;;;;;2.30;99.90;;;;;;4908978;29;19934;-79
2021/01/13 07:50:03;;;;;;;;;;;2.30;99.90;;;;;;4881947;29;19923;-78
2021/01/13 07:52:39;;;;;;;;;;;2.30;99.90;;;;;;4919437;29;19989;-79
2021/01/13 07:55:13;;;;;;;;;;;2.30;99.90;;;;;;4904354;29;19927;-78
2021/01/13 07:57:46;;;;;;;;;;;2.30;99.90;;;;;;4906260;29;19986;-80
2021/01/13 08:00:24;;;;;;;;;;;2.30;99.90;;;;;;4907939;29;19923;-79
2021/01/13 08:03:26;;;;;;;;;;;2.30;99.90;;;;;;4907886;29;19935;-78
2021/01/13 08:06:16;;;;;;;;;;;2.20;99.90;;;;;;4893518;29;19923;-81
2021/01/13 08:09:37;;;;;;;;;;;2.30;99.90;;;;;;4878002;29;19935;-80
2021/01/13 08:12:45;;;;;;;;;;;2.30;99.90;;;;;;4886275;29;19924;-79
2021/01/13 08:15:41;;;;;;;;;;;2.20;99.90;;;;;;4871349;29;19934;-79
2021/01/13 08:18:50;;;;;;;;;;;2.10;99.90;;;;;;4886812;29;19934;-82
2021/01/13 08:21:32;;;;;;;;;;;2.00;99.90;;;;;;4890305;29;19923;-80
2021/01/13 08:24:29;;;;;;;;;;;2.00;99.90;;;;;;4868836;29;19935;-78
2021/01/13 08:27:05;;;;;;;;;;;2.10;99.90;;;;;;4857779;29;19934;-79
2021/01/13 08:29:34;;;;;;;;;;;2.10;99.90;;;;;;4891719;29;19924;-79
2021/01/13 08:32:08;;;;;;;;;;;2.10;99.90;;;;;;4885861;29;20373;-80
2021/01/13 08:34:39;;;;;;;;;;;2.20;99.90;;;;;;4877447;29;19924;-80
2021/01/13 08:37:37;;;;;;;;;;;2.20;99.90;;;;;;4884874;29;19924;-80
2021/01/13 08:40:26;;;;;;;;;;;2.30;99.90;;;;;;4881941;29;19934;-79
2021/01/13 08:43:12;;;;;;;;;;;2.40;99.90;;;;;;4886182;29;19924;-79
2021/01/13 08:45:40;;;;;;;;;;;2.50;99.90;;;;;;4884865;29;19932;-80
2021/01/13 08:48:10;;;;;;;;;;;2.50;99.90;;;;;;4884937;29;19927;-80
2021/01/13 08:50:48;;;;;;;;;;;2.60;99.90;;;;;;4884450;29;19924;-80
2021/01/13 08:53:24;;;;;;;;;;;2.60;99.90;;;;;;4868181;29;19924;-78
2021/01/13 08:55:57;;;;;;;;;;;2.60;99.90;;;;;;4871806;29;19935;-80
2021/01/13 08:58:27;;;;;;;;;;;2.50;99.90;;;;;;4900345;29;19931;-79
2021/01/13 09:01:08;;;;;;;;;;;2.60;99.90;;;;;;4882486;29;19943;-81
2021/01/13 09:04:06;;;;;;;;;;;2.50;99.90;;;;;;4891221;29;19935;-79
2021/01/13 09:06:34;;;;;;;;;;;2.50;99.90;;;;;;4889655;29;19923;-79
2021/01/13 09:09:10;;;;;;;;;;;2.50;99.90;;;;;;4875235;29;20270;-79
2021/01/13 09:11:46;;;;;;;;;;;2.50;99.90;;;;;;4907888;29;19924;-80
2021/01/13 09:14:19;;;;;;;;;;;2.50;99.90;;;;;;4903859;29;19930;-79
2021/01/13 09:16:49;;;;;;;;;;;2.60;99.90;;;;;;4916497;29;20261;-79
2021/01/13 09:19:26;;;;;;;;;;;2.60;99.90;;;;;;4887008;29;19923;-79
2021/01/13 09:21:58;;;;;;;;;;;2.60;99.90;;;;;;4886928;29;20021;-80
2021/01/13 09:24:26;;;;;;;;;;;2.60;99.90;;;;;;4890712;29;19931;-80
2021/01/13 09:26:54;;;;;;;;;;;2.70;99.90;;;;;;4884031;29;19924;-79
2021/01/13 09:29:26;;;;;;;;;;;2.70;99.90;;;;;;4903358;29;19923;-79
2021/01/13 09:32:12;;;;;;;;;;;2.70;99.90;;;;;;4908826;29;20377;-79
2021/01/13 09:34:40;;;;;;;;;;;2.60;99.90;;;;;;4905811;29;19924;-78
2021/01/13 09:37:10;;;;;;;;;;;2.60;99.90;;;;;;4906861;29;19923;-80
2021/01/13 09:39:39;;;;;;;;;;;2.70;99.90;;;;;;4882898;29;19935;-80
2021/01/13 09:42:07;;;;;;;;;;;2.70;99.90;;;;;;4903382;29;19930;-80
2021/01/13 09:44:38;;;;;;;;;;;2.80;99.90;;;;;;4902836;29;19935;-80
2021/01/13 09:47:24;;;;;;;;;;;2.80;99.90;;;;;;4875113;29;20368;-80
2021/01/13 09:49:58;;;;;;;;;;;2.70;99.90;;;;;;4906094;29;19923;-80
2021/01/13 09:52:37;;;;;;;;;;;2.80;99.90;;;;;;4891425;29;19951;-79
2021/01/13 09:55:08;;;;;;;;;;;2.80;99.90;;;;;;4905912;29;20345;-80
2021/01/13 09:57:37;;;;;;;;;;;2.90;99.90;;;;;;4905284;29;19943;-78
2021/01/13 10:00:06;;;;;;;;;;;2.90;99.90;;;;;;4908446;29;20514;-79
2021/01/13 10:02:41;;;;;;;;;;;2.80;99.90;;;;;;4903649;29;19923;-81
2021/01/13 10:05:13;;;;;;;;;;;2.70;99.90;;;;;;4879458;29;19930;-80
2021/01/13 10:07:41;;;;;;;;;;;2.70;99.90;;;;;;4907374;29;19923;-81
2021/01/13 10:10:10;;;;;;;;;;;2.60;99.90;;;;;;4877742;29;20350;-79
2021/01/13 10:12:41;;;;;;;;;;;2.60;99.90;;;;;;4949140;23;19923;-81
2021/01/13 10:15:12;;;;;;;;;;;2.70;99.90;;;;;;4892325;29;19926;-80
2021/01/13 10:17:42;;;;;;;;;;;2.60;99.90;;;;;;4911984;29;19938;-79
2021/01/13 10:20:13;;;;;;;;;;;2.60;99.90;;;;;;4910785;29;19927;-79
2021/01/13 10:22:44;;;;;;;;;;;2.70;99.90;;;;;;4908038;29;19931;-79
2021/01/13 10:25:25;;;;;;;;;;;2.70;99.90;;;;;;4912181;29;19931;-81
2021/01/13 10:27:53;;;;;;;;;;;2.80;99.90;;;;;;4883149;29;20358;-80
2021/01/13 10:30:24;;;;;;;;;;;2.70;99.90;;;;;;4890617;29;19947;-80
2021/01/13 10:32:52;;;;;;;;;;;2.80;99.90;;;;;;4890601;29;19930;-80
2021/01/13 10:35:23;;;;;;;;;;;2.70;99.90;;;;;;4890279;29;19927;-79
2021/01/13 10:37:57;;;;;;;;;;;2.70;99.90;;;;;;4907117;29;20369;-79
2021/01/13 10:40:24;;;;;;;;;;;2.80;99.90;;;;;;4890006;29;20282;-80
2021/01/13 10:42:54;;;;;;;;;;;2.80;99.90;;;;;;4883358;29;19943;-78
2021/01/13 10:45:27;;;;;;;;;;;2.90;99.90;;;;;;4902880;29;20277;-82
2021/01/13 10:48:04;;;;;;;;;;;2.90;99.90;;;;;;4892136;29;19924;-81
2021/01/13 10:50:44;;;;;;;;;;;2.90;99.90;;;;;;4944400;23;19931;-80
2021/01/13 10:53:18;;;;;;;;;;;3.00;99.90;;;;;;4886418;29;19923;-80
2021/01/13 10:55:49;;;;;;;;;;;3.10;99.90;;;;;;4881583;29;19924;-79
2021/01/13 10:58:22;;;;;;;;;;;3.10;99.90;;;;;;4876951;29;19946;-79
2021/01/13 11:01:03;;;;;;;;;;;3.20;99.90;;;;;;4864829;29;19923;-79
2021/01/13 11:03:32;;;;;;;;;;;3.10;99.90;;;;;;4870380;29;19938;-79
2021/01/13 11:06:01;;;;;;;;;;;3.10;99.90;;;;;;4867233;29;20362;-79
2021/01/13 11:08:36;;;;;;;;;;;3.10;99.90;;;;;;4845841;29;19924;-79
2021/01/13 11:11:07;;;;;;;;;;;3.20;99.90;;;;;;4862274;29;19923;-79
2021/01/13 11:13:43;;;;;;;;;;;3.20;99.90;;;;;;4889338;29;20002;-81
2021/01/13 11:16:11;;;;;;;;;;;3.30;99.90;;;;;;4875803;29;19934;-80
2021/01/13 11:18:39;;;;;;;;;;;3.30;99.90;;;;;;4874838;29;19935;-79
2021/01/13 11:21:10;;;;;;;;;;;3.30;99.90;;;;;;4899978;29;19924;-79
2021/01/13 11:23:42;;;;;;;;;;;3.30;99.90;;;;;;4884611;29;19924;-80
2021/01/13 11:26:13;;;;;;;;;;;3.30;99.90;;;;;;4870090;29;19927;-80
2021/01/13 11:28:46;;;;;;;;;;;3.40;99.90;;;;;;4895422;29;19930;-80
2021/01/13 11:31:14;;;;;;;;;;;3.50;99.90;;;;;;4877707;29;19924;-80
2021/01/13 11:33:44;;;;;;;;;;;3.40;99.90;;;;;;4870878;29;19924;-80
2021/01/13 11:36:26;;;;;;;;;;;3.40;99.90;;;;;;4873435;29;19923;-80
2021/01/13 11:39:08;;;;;;;;;;;3.30;99.90;;;;;;4869401;29;19955;-77
2021/01/13 11:42:15;;;;;;;;;;;3.30;99.90;;;;;;4872812;29;19924;-78
2021/01/13 11:44:49;;;;;;;;;;;3.30;99.90;;;;;;4870782;29;19923;-77
2021/01/13 11:47:20;;;;;;;;;;;3.30;99.90;;;;;;4856895;29;19923;-78
2021/01/13 11:49:51;;;;;;;;;;;3.20;99.90;;;;;;4850834;29;19998;-79
2021/01/13 11:52:22;;;;;;;;;;;3.30;99.90;;;;;;4868412;29;19924;-79
2021/01/13 11:54:56;;;;;;;;;;;3.40;99.90;;;;;;4871548;29;20432;-79
2021/01/13 11:57:27;;;;;;;;;;;3.40;99.90;;;;;;4860376;29;20370;-80
2021/01/13 11:59:57;;;;;;;;;;;3.20;99.90;;;;;;4834618;29;19928;-79
2021/01/13 12:02:25;;;;;;;;;;;3.20;99.90;;;;;;4865236;29;19924;-79
2021/01/13 12:04:53;;;;;;;;;;;3.20;99.90;;;;;;4861494;29;19935;-79
2021/01/13 12:07:22;;;;;;;;;;;3.30;99.90;;;;;;4858298;29;19924;-79
2021/01/13 12:10:05;;;;;;;;;;;3.50;99.90;;;;;;4875366;29;19924;-79
2021/01/13 12:12:34;;;;;;;;;;;3.70;99.90;;;;;;4873176;29;20355;-79
2021/01/13 12:15:04;;;;;;;;;;;3.50;99.90;;;;;;4871515;29;19934;-80
2021/01/13 12:17:33;;;;;;;;;;;3.30;99.90;;;;;;4864612;29;19924;-78
2021/01/13 12:20:04;;;;;;;;;;;3.40;99.90;;;;;;4846468;29;19924;-79
2021/01/13 12:22:36;;;;;;;;;;;3.50;99.90;;;;;;4845905;29;19934;-79
2021/01/13 12:25:05;;;;;;;;;;;3.50;99.90;;;;;;4862275;29;19986;-79
2021/01/13 12:27:34;;;;;;;;;;;3.50;99.90;;;;;;4852047;29;19924;-79
2021/01/13 12:30:13;;;;;;;;;;;3.40;99.90;;;;;;4867478;29;19928;-80
2021/01/13 12:32:43;;;;;;;;;;;3.30;99.90;;;;;;4857487;29;19924;-79
2021/01/13 12:35:13;;;;;;;;;;;3.30;99.90;;;;;;4849327;29;19924;-80
2021/01/13 12:37:47;;;;;;;;;;;3.30;99.90;;;;;;4860863;29;19928;-80
2021/01/13 12:40:15;;;;;;;;;;;3.30;99.90;;;;;;4855134;29;19924;-80
2021/01/13 12:42:46;;;;;;;;;;;3.30;99.90;;;;;;4860971;29;19935;-79
2021/01/13 12:45:13;;;;;;;;;;;3.30;99.90;;;;;;4840557;29;19935;-80
2021/01/13 12:47:53;;;;;;;;;;;3.40;99.90;;;;;;4856214;29;19924;-79
2021/01/13 12:50:20;;;;;;;;;;;3.30;99.90;;;;;;4839542;29;20346;-80
2021/01/13 12:52:53;;;;;;;;;;;3.30;99.90;;;;;;4867079;29;19924;-79
2021/01/13 12:55:20;;;;;;;;;;;3.30;99.90;;;;;;4855342;29;19924;-82
2021/01/13 12:57:49;;;;;;;;;;;3.30;99.90;;;;;;4851726;29;19924;-80
2021/01/13 13:00:22;;;;;;;;;;;3.20;99.90;;;;;;4849466;29;19935;-82
2021/01/13 13:02:49;;;;;;;;;;;3.10;99.90;;;;;;4848304;29;19924;-80
2021/01/13 13:05:23;;;;;;;;;;;3.20;99.90;;;;;;4852951;29;20370;-81
2021/01/13 13:07:52;;;;;;;;;;;3.20;99.90;;;;;;4849653;29;19924;-81
2021/01/13 13:10:23;;;;;;;;;;;3.30;99.90;;;;;;4853312;29;19928;-81
2021/01/13 13:12:50;;;;;;;;;;;3.20;99.90;;;;;;4853691;29;19947;-79
2021/01/13 13:15:20;;;;;;;;;;;3.20;99.90;;;;;;4855130;29;19939;-80
2021/01/13 13:17:57;;;;;;;;;;;3.20;99.90;;;;;;4845854;29;19935;-79
2021/01/13 13:20:26;;;;;;;;;;;3.10;99.90;;;;;;4862532;29;19924;-81
2021/01/13 13:23:09;;;;;;;;;;;3.10;99.90;;;;;;4874615;29;19930;-78
2021/01/13 13:25:40;;;;;;;;;;;3.10;99.90;;;;;;4895163;29;19920;-81
2021/01/13 13:28:14;;;;;;;;;;;3.10;99.90;;;;;;4867117;29;19924;-81
2021/01/13 13:30:45;;;;;;;;;;;3.00;99.90;;;;;;4884030;29;19930;-81
2021/01/13 13:33:17;;;;;;;;;;;3.10;99.90;;;;;;4850167;29;20369;-79
2021/01/13 13:35:46;;;;;;;;;;;3.20;99.90;;;;;;4860260;29;19935;-80
2021/01/13 13:38:17;;;;;;;;;;;3.20;99.90;;;;;;4863019;29;19924;-79
2021/01/13 13:40:45;;;;;;;;;;;3.20;99.90;;;;;;4862607;29;19924;-78
2021/01/13 13:43:12;;;;;;;;;;;3.20;99.90;;;;;;4854619;29;19932;-79
2021/01/13 13:45:40;;;;;;;;;;;3.30;99.90;;;;;;4872383;29;19943;-79
2021/01/13 13:48:10;;;;;;;;;;;3.20;99.90;;;;;;4844297;29;19923;-81
2021/01/13 13:50:38;;;;;;;;;;;3.30;99.90;;;;;;4872505;29;20282;-79
2021/01/13 13:53:07;;;;;;;;;;;3.30;99.90;;;;;;4903885;29;19924;-79
2021/01/13 13:55:38;;;;;;;;;;;3.40;99.90;;;;;;4877235;29;19923;-79
2021/01/13 13:58:07;;;;;;;;;;;3.50;99.90;;;;;;4862466;29;19928;-79
2021/01/13 14:00:39;;;;;;;;;;;3.60;99.90;;;;;;4862017;29;19923;-80
2021/01/13 14:03:08;;;;;;;;;;;3.80;99.90;;;;;;4893471;29;19927;-79
2021/01/13 14:05:35;;;;;;;;;;;3.70;99.90;;;;;;4891580;29;19935;-81
2021/01/13 14:08:03;;;;;;;;;;;3.70;99.90;;;;;;4863285;29;19928;-78
2021/01/13 14:10:32;;;;;;;;;;;3.60;99.90;;;;;;4879696;29;19924;-80
2021/01/13 14:13:05;;;;;;;;;;;3.50;99.90;;;;;;4846181;29;19924;-80
2021/01/13 14:15:32;;;;;;;;;;;3.40;99.90;;;;;;4867198;29;20355;-81
2021/01/13 14:18:01;;;;;;;;;;;3.30;99.90;;;;;;4869335;29;19951;-79
2021/01/13 14:20:35;;;;;;;;;;;3.30;99.90;;;;;;4877487;29;19931;-79
2021/01/13 14:23:03;;;;;;;;;;;3.30;99.90;;;;;;4886328;29;19939;-80
2021/01/13 14:25:32;;;;;;;;;;;3.20;99.90;;;;;;4850352;29;19924;-79
2021/01/13 14:28:02;;;;;;;;;;;3.20;99.90;;;;;;4859928;29;19923;-79
2021/01/13 14:30:31;;;;;;;;;;;3.30;99.90;;;;;;4887444;29;19931;-79
2021/01/13 14:33:03;;;;;;;;;;;3.20;99.90;;;;;;4855753;29;19928;-80
2021/01/13 14:35:41;;;;;;;;;;;3.20;99.90;;;;;;4877739;29;19923;-81
2021/01/13 14:38:09;;;;;;;;;;;3.20;99.90;;;;;;4873876;29;19923;-79
2021/01/13 14:40:38;;;;;;;;;;;3.10;99.90;;;;;;4873594;29;19934;-79
2021/01/13 14:43:07;;;;;;;;;;;3.10;99.90;;;;;;4881530;29;20351;-78
2021/01/13 14:45:42;;;;;;;;;;;3.10;99.90;;;;;;4885668;29;19932;-80
2021/01/13 14:48:10;;;;;;;;;;;3.10;99.90;;;;;;4887813;29;19923;-79
2021/01/13 14:50:40;;;;;;;;;;;3.10;99.90;;;;;;4885338;29;19924;-79
2021/01/13 14:53:10;;;;;;;;;;;3.10;99.90;;;;;;4873073;29;20270;-80
2021/01/13 14:55:40;;;;;;;;;;;3.10;99.90;;;;;;4853851;29;19930;-77
2021/01/13 14:58:09;;;;;;;;;;;3.10;99.90;;;;;;4885542;29;19924;-79
2021/01/13 15:00:39;;;;;;;;;;;3.10;99.90;;;;;;4851948;29;20653;-78
2021/01/13 15:03:14;;;;;;;;;;;3.10;99.90;;;;;;4884718;29;19943;-78
2021/01/13 15:05:42;;;;;;;;;;;3.10;99.90;;;;;;4861722;29;19924;-77